sensor_id;sensor_type;location;lat;lon;timestamp;temperature;humidity
6536;DHT22;34330;52.08032700;5.40923460;2023-05-07T00:00:02;19.30;87.80
6536;DHT22;34330;52.08032700;5.40923460;2023-05-07T00:02:36;19.30;87.50
6536;DHT22;34330;52.08032700;5.40923460;2023-05-07T00:05:06;19.40;87.50
6536;DHT22;34330;52.08032700;5.40923460;2023-05-07T00:07:34;19.40;87.30
6536;DHT22;34330;52.08032700;5.40923460;2023-05-07T00:10:03;19.30;87.00
6536;DHT22;34330;52.08032700;5.40923460;2023-05-07T00:12:32;19.30;87.20
6536;DHT22;34330;52.08032700;5.40923460;2023-05-07T00:15:01;19.30;87.10
6536;DHT22;34330;52.08032700;5.40923460;2023-05-07T00:17:29;19.30;87.20
6536;DHT22;34330;52.08032700;5.40923460;2023-05-07T00:19:59;19.30;87.00
6536;DHT22;34330;52.08032700;5.40923460;2023-05-07T00:22:27;19.30;87.20
6536;DHT22;34330;52.08032700;5.40923460;2023-05-07T00:24:56;19.30;87.10
6536;DHT22;34330;52.08032700;5.40923460;2023-05-07T00:27:24;19.30;87.40
6536;DHT22;34330;52.08032700;5.40923460;2023-05-07T00:29:52;19.20;87.40
6536;DHT22;34330;52.08032700;5.40923460;2023-05-07T00:32:20;19.20;87.40
6536;DHT22;34330;52.08032700;5.40923460;2023-05-07T00:34:48;19.20;87.30
6536;DHT22;34330;52.08032700;5.40923460;2023-05-07T00:37:19;19.20;87.40
6536;DHT22;34330;52.08032700;5.40923460;2023-05-07T00:39:47;19.20;87.50
6536;DHT22;34330;52.08032700;5.40923460;2023-05-07T00:42:15;19.20;87.10
6536;DHT22;34330;52.08032700;5.40923460;2023-05-07T00:44:43;19.20;87.20
6536;DHT22;34330;52.08032700;5.40923460;2023-05-07T00:47:11;19.20;87.20
6536;DHT22;34330;52.08032700;5.40923460;2023-05-07T00:49:41;19.20;87.40
6536;DHT22;34330;52.08032700;5.40923460;2023-05-07T00:52:10;19.10;87.60
6536;DHT22;34330;52.08032700;5.40923460;2023-05-07T00:54:40;19.10;87.60
6536;DHT22;34330;52.08032700;5.40923460;2023-05-07T00:57:10;19.10;88.10
6536;DHT22;34330;52.08032700;5.40923460;2023-05-07T00:59:39;19.10;88.00
6536;DHT22;34330;52.08032700;5.40923460;2023-05-07T01:02:07;19.10;88.10
6536;DHT22;34330;52.08032700;5.40923460;2023-05-07T01:04:35;18.90;89.10
6536;DHT22;34330;52.08032700;5.40923460;2023-05-07T01:07:03;19.10;89.40
6536;DHT22;34330;52.08032700;5.40923460;2023-05-07T01:09:32;19.00;89.10
6536;DHT22;34330;52.08032700;5.40923460;2023-05-07T01:12:04;19.00;88.90
6536;DHT22;34330;52.08032700;5.40923460;2023-05-07T01:14:32;20.40;90.10
6536;DHT22;34330;52.08032700;5.40923460;2023-05-07T01:17:00;19.10;88.60
6536;DHT22;34330;52.08032700;5.40923460;2023-05-07T01:19:29;19.20;88.50
6536;DHT22;34330;52.08032700;5.40923460;2023-05-07T01:22:02;19.10;88.40
6536;DHT22;34330;52.08032700;5.40923460;2023-05-07T01:24:32;19.20;88.60
6536;DHT22;34330;52.08032700;5.40923460;2023-05-07T01:27:00;19.20;88.30
6536;DHT22;34330;52.08032700;5.40923460;2023-05-07T01:29:29;19.20;88.10
6536;DHT22;34330;52.08032700;5.40923460;2023-05-07T01:31:58;19.20;88.20
6536;DHT22;34330;52.08032700;5.40923460;2023-05-07T01:34:30;19.20;88.30
6536;DHT22;34330;52.08032700;5.40923460;2023-05-07T01:36:59;19.20;88.30
6536;DHT22;34330;52.08032700;5.40923460;2023-05-07T01:39:29;19.20;88.30
6536;DHT22;34330;52.08032700;5.40923460;2023-05-07T01:41:59;19.20;88.30
6536;DHT22;34330;52.08032700;5.40923460;2023-05-07T01:44:27;19.40;88.50
6536;DHT22;34330;52.08032700;5.40923460;2023-05-07T01:46:55;19.20;88.30
6536;DHT22;34330;52.08032700;5.40923460;2023-05-07T01:49:24;19.20;88.30
6536;DHT22;34330;52.08032700;5.40923460;2023-05-07T01:51:52;19.20;88.40
6536;DHT22;34330;52.08032700;5.40923460;2023-05-07T01:54:25;19.30;88.40
6536;DHT22;34330;52.08032700;5.40923460;2023-05-07T01:56:55;19.20;88.70
6536;DHT22;34330;52.08032700;5.40923460;2023-05-07T01:59:25;19.20;88.50
6536;DHT22;34330;52.08032700;5.40923460;2023-05-07T02:01:53;19.20;88.50
6536;DHT22;34330;52.08032700;5.40923460;2023-05-07T02:04:21;19.20;88.30
6536;DHT22;34330;52.08032700;5.40923460;2023-05-07T02:06:49;19.20;88.40
6536;DHT22;34330;52.08032700;5.40923460;2023-05-07T02:09:16;19.20;88.30
6536;DHT22;34330;52.08032700;5.40923460;2023-05-07T02:11:45;19.20;88.40
6536;DHT22;34330;52.08032700;5.40923460;2023-05-07T02:14:13;19.20;88.50
6536;DHT22;34330;52.08032700;5.40923460;2023-05-07T02:16:43;19.20;88.50
6536;DHT22;34330;52.08032700;5.40923460;2023-05-07T02:19:11;19.20;88.60
6536;DHT22;34330;52.08032700;5.40923460;2023-05-07T02:21:39;19.20;88.50
6536;DHT22;34330;52.08032700;5.40923460;2023-05-07T02:24:07;19.20;88.60
6536;DHT22;34330;52.08032700;5.40923460;2023-05-07T02:26:35;19.20;88.60
6536;DHT22;34330;52.08032700;5.40923460;2023-05-07T02:29:03;19.20;88.70
6536;DHT22;34330;52.08032700;5.40923460;2023-05-07T02:31:30;19.20;88.80
6536;DHT22;34330;52.08032700;5.40923460;2023-05-07T02:34:01;19.20;88.80
6536;DHT22;34330;52.08032700;5.40923460;2023-05-07T02:36:30;19.20;89.00
6536;DHT22;34330;52.08032700;5.40923460;2023-05-07T02:38:58;19.20;88.80
6536;DHT22;34330;52.08032700;5.40923460;2023-05-07T02:41:26;19.20;88.80
6536;DHT22;34330;52.08032700;5.40923460;2023-05-07T02:43:54;19.20;88.80
6536;DHT22;34330;52.08032700;5.40923460;2023-05-07T02:46:22;19.20;88.80
6536;DHT22;34330;52.08032700;5.40923460;2023-05-07T02:48:50;19.20;88.80
6536;DHT22;34330;52.08032700;5.40923460;2023-05-07T02:51:21;19.20;88.80
6536;DHT22;34330;52.08032700;5.40923460;2023-05-07T02:53:51;19.10;89.00
6536;DHT22;34330;52.08032700;5.40923460;2023-05-07T02:56:19;19.10;88.80
6536;DHT22;34330;52.08032700;5.40923460;2023-05-07T02:58:48;19.10;88.90
6536;DHT22;34330;52.08032700;5.40923460;2023-05-07T03:01:16;19.10;88.90
6536;DHT22;34330;52.08032700;5.40923460;2023-05-07T03:03:45;19.10;89.00
6536;DHT22;34330;52.08032700;5.40923460;2023-05-07T03:06:13;19.10;89.00
6536;DHT22;34330;52.08032700;5.40923460;2023-05-07T03:08:43;19.10;88.90
6536;DHT22;34330;52.08032700;5.40923460;2023-05-07T03:11:11;19.10;89.10
6536;DHT22;34330;52.08032700;5.40923460;2023-05-07T03:13:40;19.00;88.90
6536;DHT22;34330;52.08032700;5.40923460;2023-05-07T03:16:07;19.10;89.00
6536;DHT22;34330;52.08032700;5.40923460;2023-05-07T03:18:36;19.00;88.90
6536;DHT22;34330;52.08032700;5.40923460;2023-05-07T03:21:04;19.00;88.90
6536;DHT22;34330;52.08032700;5.40923460;2023-05-07T03:23:31;19.00;88.90
6536;DHT22;34330;52.08032700;5.40923460;2023-05-07T03:26:01;19.00;88.80
6536;DHT22;34330;52.08032700;5.40923460;2023-05-07T03:28:29;19.00;88.90
6536;DHT22;34330;52.08032700;5.40923460;2023-05-07T03:30:56;18.90;88.70
6536;DHT22;34330;52.08032700;5.40923460;2023-05-07T03:33:24;18.90;88.80
6536;DHT22;34330;52.08032700;5.40923460;2023-05-07T03:35:54;18.90;89.50
6536;DHT22;34330;52.08032700;5.40923460;2023-05-07T03:38:22;18.90;88.80
6536;DHT22;34330;52.08032700;5.40923460;2023-05-07T03:40:50;18.90;88.80
6536;DHT22;34330;52.08032700;5.40923460;2023-05-07T03:43:19;18.80;88.80
6536;DHT22;34330;52.08032700;5.40923460;2023-05-07T03:45:47;18.80;88.90
6536;DHT22;34330;52.08032700;5.40923460;2023-05-07T03:48:15;18.80;88.90
6536;DHT22;34330;52.08032700;5.40923460;2023-05-07T03:50:43;18.70;88.80
6536;DHT22;34330;52.08032700;5.40923460;2023-05-07T03:53:11;18.70;88.90
6536;DHT22;34330;52.08032700;5.40923460;2023-05-07T03:55:39;18.70;89.00
6536;DHT22;34330;52.08032700;5.40923460;2023-05-07T03:58:07;16.70;87.20
6536;DHT22;34330;52.08032700;5.40923460;2023-05-07T04:00:36;18.70;89.20
6536;DHT22;34330;52.08032700;5.40923460;2023-05-07T04:03:05;18.70;89.40
6536;DHT22;34330;52.08032700;5.40923460;2023-05-07T04:05:33;18.70;89.40
6536;DHT22;34330;52.08032700;5.40923460;2023-05-07T04:08:01;18.70;89.40
6536;DHT22;34330;52.08032700;5.40923460;2023-05-07T04:10:29;18.60;89.40
6536;DHT22;34330;52.08032700;5.40923460;2023-05-07T04:12:57;18.60;90.10
6536;DHT22;34330;52.08032700;5.40923460;2023-05-07T04:15:25;18.60;89.60
6536;DHT22;34330;52.08032700;5.40923460;2023-05-07T04:17:54;18.60;89.70
6536;DHT22;34330;52.08032700;5.40923460;2023-05-07T04:20:22;18.60;89.90
6536;DHT22;34330;52.08032700;5.40923460;2023-05-07T04:22:50;18.60;89.90
6536;DHT22;34330;52.08032700;5.40923460;2023-05-07T04:25:18;18.60;90.00
6536;DHT22;34330;52.08032700;5.40923460;2023-05-07T04:27:46;18.60;90.00
6536;DHT22;34330;52.08032700;5.40923460;2023-05-07T04:30:15;18.60;90.00
6536;DHT22;34330;52.08032700;5.40923460;2023-05-07T04:32:43;18.50;90.00
6536;DHT22;34330;52.08032700;5.40923460;2023-05-07T04:35:13;18.60;90.10
6536;DHT22;34330;52.08032700;5.40923460;2023-05-07T04:37:41;18.70;90.20
6536;DHT22;34330;52.08032700;5.40923460;2023-05-07T04:40:09;18.60;90.10
6536;DHT22;34330;52.08032700;5.40923460;2023-05-07T04:42:38;18.60;90.10
6536;DHT22;34330;52.08032700;5.40923460;2023-05-07T04:45:06;18.60;90.10
6536;DHT22;34330;52.08032700;5.40923460;2023-05-07T04:47:35;18.50;90.10
6536;DHT22;34330;52.08032700;5.40923460;2023-05-07T04:50:03;18.50;90.10
6536;DHT22;34330;52.08032700;5.40923460;2023-05-07T04:52:32;18.50;90.10
6536;DHT22;34330;52.08032700;5.40923460;2023-05-07T04:55:00;18.50;90.50
6536;DHT22;34330;52.08032700;5.40923460;2023-05-07T04:57:28;18.50;90.20
6536;DHT22;34330;52.08032700;5.40923460;2023-05-07T04:59:57;18.50;90.30
6536;DHT22;34330;52.08032700;5.40923460;2023-05-07T05:02:25;18.50;90.40
6536;DHT22;34330;52.08032700;5.40923460;2023-05-07T05:04:53;18.50;90.40
6536;DHT22;34330;52.08032700;5.40923460;2023-05-07T05:07:21;18.50;90.30
6536;DHT22;34330;52.08032700;5.40923460;2023-05-07T05:09:50;18.50;90.30
6536;DHT22;34330;52.08032700;5.40923460;2023-05-07T05:12:17;18.50;90.30
6536;DHT22;34330;52.08032700;5.40923460;2023-05-07T05:14:46;18.50;90.30
6536;DHT22;34330;52.08032700;5.40923460;2023-05-07T05:17:14;18.50;90.30
6536;DHT22;34330;52.08032700;5.40923460;2023-05-07T05:19:42;18.50;90.30
6536;DHT22;34330;52.08032700;5.40923460;2023-05-07T05:22:11;18.50;90.30
6536;DHT22;34330;52.08032700;5.40923460;2023-05-07T05:24:38;18.50;90.30
6536;DHT22;34330;52.08032700;5.40923460;2023-05-07T05:27:08;18.50;90.60
6536;DHT22;34330;52.08032700;5.40923460;2023-05-07T05:29:36;18.50;90.30
6536;DHT22;34330;52.08032700;5.40923460;2023-05-07T05:32:04;18.50;90.30
6536;DHT22;34330;52.08032700;5.40923460;2023-05-07T05:34:32;18.40;90.30
6536;DHT22;34330;52.08032700;5.40923460;2023-05-07T05:37:00;18.50;90.70
6536;DHT22;34330;52.08032700;5.40923460;2023-05-07T05:39:28;18.50;90.40
6536;DHT22;34330;52.08032700;5.40923460;2023-05-07T05:41:56;18.50;90.50
6536;DHT22;34330;52.08032700;5.40923460;2023-05-07T05:44:25;18.50;90.50
6536;DHT22;34330;52.08032700;5.40923460;2023-05-07T05:46:53;18.50;90.60
6536;DHT22;34330;52.08032700;5.40923460;2023-05-07T05:49:24;18.50;90.60
6536;DHT22;34330;52.08032700;5.40923460;2023-05-07T05:51:52;18.50;90.60
6536;DHT22;34330;52.08032700;5.40923460;2023-05-07T05:54:19;18.50;90.60
6536;DHT22;34330;52.08032700;5.40923460;2023-05-07T05:56:48;18.50;90.60
6536;DHT22;34330;52.08032700;5.40923460;2023-05-07T05:59:16;18.60;90.50
6536;DHT22;34330;52.08032700;5.40923460;2023-05-07T06:01:45;18.60;90.70
6536;DHT22;34330;52.08032700;5.40923460;2023-05-07T06:04:14;18.60;90.80
6536;DHT22;34330;52.08032700;5.40923460;2023-05-07T06:06:42;18.60;90.50
6536;DHT22;34330;52.08032700;5.40923460;2023-05-07T06:09:10;18.60;90.70
6536;DHT22;34330;52.08032700;5.40923460;2023-05-07T06:11:38;17.70;90.10
6536;DHT22;34330;52.08032700;5.40923460;2023-05-07T06:14:07;18.70;90.70
6536;DHT22;34330;52.08032700;5.40923460;2023-05-07T06:16:35;18.70;90.70
6536;DHT22;34330;52.08032700;5.40923460;2023-05-07T06:19:06;18.70;90.70
6536;DHT22;34330;52.08032700;5.40923460;2023-05-07T06:21:33;18.70;90.80
6536;DHT22;34330;52.08032700;5.40923460;2023-05-07T06:24:01;18.80;90.70
6536;DHT22;34330;52.08032700;5.40923460;2023-05-07T06:26:29;18.80;90.80
6536;DHT22;34330;52.08032700;5.40923460;2023-05-07T06:28:57;18.80;90.80
6536;DHT22;34330;52.08032700;5.40923460;2023-05-07T06:31:30;18.80;90.80
6536;DHT22;34330;52.08032700;5.40923460;2023-05-07T06:33:58;18.80;91.00
6536;DHT22;34330;52.08032700;5.40923460;2023-05-07T06:36:27;18.80;90.90
6536;DHT22;34330;52.08032700;5.40923460;2023-05-07T06:38:56;18.80;90.90
6536;DHT22;34330;52.08032700;5.40923460;2023-05-07T06:41:23;18.90;91.00
6536;DHT22;34330;52.08032700;5.40923460;2023-05-07T06:43:52;18.90;91.10
6536;DHT22;34330;52.08032700;5.40923460;2023-05-07T06:46:20;18.90;91.20
6536;DHT22;34330;52.08032700;5.40923460;2023-05-07T06:48:48;18.90;91.20
6536;DHT22;34330;52.08032700;5.40923460;2023-05-07T06:51:16;18.60;91.10
6536;DHT22;34330;52.08032700;5.40923460;2023-05-07T06:53:45;18.90;91.30
6536;DHT22;34330;52.08032700;5.40923460;2023-05-07T06:56:13;18.90;91.30
6536;DHT22;34330;52.08032700;5.40923460;2023-05-07T06:58:41;19.00;91.50
6536;DHT22;34330;52.08032700;5.40923460;2023-05-07T07:01:09;19.00;91.50
6536;DHT22;34330;52.08032700;5.40923460;2023-05-07T07:03:37;19.00;91.40
6536;DHT22;34330;52.08032700;5.40923460;2023-05-07T07:06:05;19.00;91.40
6536;DHT22;34330;52.08032700;5.40923460;2023-05-07T07:08:33;19.00;91.40
6536;DHT22;34330;52.08032700;5.40923460;2023-05-07T07:11:02;19.10;91.50
6536;DHT22;34330;52.08032700;5.40923460;2023-05-07T07:13:30;19.10;91.50
6536;DHT22;34330;52.08032700;5.40923460;2023-05-07T07:15:58;19.10;91.50
6536;DHT22;34330;52.08032700;5.40923460;2023-05-07T07:18:25;19.10;91.60
6536;DHT22;34330;52.08032700;5.40923460;2023-05-07T07:20:53;19.10;91.70
6536;DHT22;34330;52.08032700;5.40923460;2023-05-07T07:23:21;19.10;91.70
6536;DHT22;34330;52.08032700;5.40923460;2023-05-07T07:25:49;19.20;91.90
6536;DHT22;34330;52.08032700;5.40923460;2023-05-07T07:28:21;19.30;91.90
6536;DHT22;34330;52.08032700;5.40923460;2023-05-07T07:30:49;19.40;92.00
6536;DHT22;34330;52.08032700;5.40923460;2023-05-07T07:33:17;19.40;91.80
6536;DHT22;34330;52.08032700;5.40923460;2023-05-07T07:35:45;19.50;91.70
6536;DHT22;34330;52.08032700;5.40923460;2023-05-07T07:38:13;19.50;91.50
6536;DHT22;34330;52.08032700;5.40923460;2023-05-07T07:40:41;19.60;91.50
6536;DHT22;34330;52.08032700;5.40923460;2023-05-07T07:43:10;19.60;91.40
6536;DHT22;34330;52.08032700;5.40923460;2023-05-07T07:45:40;19.60;91.90
6536;DHT22;34330;52.08032700;5.40923460;2023-05-07T07:48:08;19.70;92.00
6536;DHT22;34330;52.08032700;5.40923460;2023-05-07T07:50:36;19.70;91.90
6536;DHT22;34330;52.08032700;5.40923460;2023-05-07T07:53:11;19.80;91.70
6536;DHT22;34330;52.08032700;5.40923460;2023-05-07T07:55:39;19.90;91.90
6536;DHT22;34330;52.08032700;5.40923460;2023-05-07T07:58:07;20.00;91.70
6536;DHT22;34330;52.08032700;5.40923460;2023-05-07T08:00:36;20.10;91.50
6536;DHT22;34330;52.08032700;5.40923460;2023-05-07T08:03:05;20.20;91.40
6536;DHT22;34330;52.08032700;5.40923460;2023-05-07T08:05:34;20.20;91.30
6536;DHT22;34330;52.08032700;5.40923460;2023-05-07T08:08:02;20.30;91.20
6536;DHT22;34330;52.08032700;5.40923460;2023-05-07T08:10:30;20.30;91.10
6536;DHT22;34330;52.08032700;5.40923460;2023-05-07T08:13:01;20.30;91.10
6536;DHT22;34330;52.08032700;5.40923460;2023-05-07T08:15:30;20.30;90.90
6536;DHT22;34330;52.08032700;5.40923460;2023-05-07T08:17:58;20.40;90.90
6536;DHT22;34330;52.08032700;5.40923460;2023-05-07T08:20:28;20.40;90.90
6536;DHT22;34330;52.08032700;5.40923460;2023-05-07T08:22:56;20.40;90.90
6536;DHT22;34330;52.08032700;5.40923460;2023-05-07T08:25:24;20.50;91.00
6536;DHT22;34330;52.08032700;5.40923460;2023-05-07T08:27:52;20.40;90.90
6536;DHT22;34330;52.08032700;5.40923460;2023-05-07T08:30:20;20.40;90.90
6536;DHT22;34330;52.08032700;5.40923460;2023-05-07T08:32:48;20.40;91.00
6536;DHT22;34330;52.08032700;5.40923460;2023-05-07T08:35:16;20.30;91.10
6536;DHT22;34330;52.08032700;5.40923460;2023-05-07T08:37:45;20.40;91.30
6536;DHT22;34330;52.08032700;5.40923460;2023-05-07T08:40:14;20.30;91.40
6536;DHT22;34330;52.08032700;5.40923460;2023-05-07T08:42:44;20.30;91.40
6536;DHT22;34330;52.08032700;5.40923460;2023-05-07T08:45:12;20.30;91.40
6536;DHT22;34330;52.08032700;5.40923460;2023-05-07T08:47:43;20.40;91.40
6536;DHT22;34330;52.08032700;5.40923460;2023-05-07T08:50:12;20.40;91.30
6536;DHT22;34330;52.08032700;5.40923460;2023-05-07T08:52:41;20.40;91.20
6536;DHT22;34330;52.08032700;5.40923460;2023-05-07T08:55:11;20.40;91.30
6536;DHT22;34330;52.08032700;5.40923460;2023-05-07T08:57:40;20.30;91.40
6536;DHT22;34330;52.08032700;5.40923460;2023-05-07T09:00:09;20.30;91.60
6536;DHT22;34330;52.08032700;5.40923460;2023-05-07T09:02:37;20.30;91.40
6536;DHT22;34330;52.08032700;5.40923460;2023-05-07T09:05:07;20.30;91.10
6536;DHT22;34330;52.08032700;5.40923460;2023-05-07T09:07:35;20.30;91.10
6536;DHT22;34330;52.08032700;5.40923460;2023-05-07T09:10:04;20.30;91.30
6536;DHT22;34330;52.08032700;5.40923460;2023-05-07T09:12:33;20.30;91.20
6536;DHT22;34330;52.08032700;5.40923460;2023-05-07T09:15:03;20.30;91.40
6536;DHT22;34330;52.08032700;5.40923460;2023-05-07T09:17:31;20.30;91.60
6536;DHT22;34330;52.08032700;5.40923460;2023-05-07T09:20:02;20.30;91.70
6536;DHT22;34330;52.08032700;5.40923460;2023-05-07T09:22:31;20.30;91.80
6536;DHT22;34330;52.08032700;5.40923460;2023-05-07T09:24:59;20.30;91.80
6536;DHT22;34330;52.08032700;5.40923460;2023-05-07T09:27:27;20.30;91.80
6536;DHT22;34330;52.08032700;5.40923460;2023-05-07T09:29:56;20.40;91.90
6536;DHT22;34330;52.08032700;5.40923460;2023-05-07T09:32:25;20.40;91.90
6536;DHT22;34330;52.08032700;5.40923460;2023-05-07T09:34:53;20.40;91.90
6536;DHT22;34330;52.08032700;5.40923460;2023-05-07T09:37:21;20.50;92.10
6536;DHT22;34330;52.08032700;5.40923460;2023-05-07T09:39:49;20.60;92.00
6536;DHT22;34330;52.08032700;5.40923460;2023-05-07T09:42:23;20.60;92.20
6536;DHT22;34330;52.08032700;5.40923460;2023-05-07T09:44:51;20.70;92.40
6536;DHT22;34330;52.08032700;5.40923460;2023-05-07T09:47:23;20.70;92.20
6536;DHT22;34330;52.08032700;5.40923460;2023-05-07T09:49:56;20.70;92.30
6536;DHT22;34330;52.08032700;5.40923460;2023-05-07T09:52:24;20.80;92.50
6536;DHT22;34330;52.08032700;5.40923460;2023-05-07T09:54:56;20.90;92.10
6536;DHT22;34330;52.08032700;5.40923460;2023-05-07T09:57:26;20.90;92.10
6536;DHT22;34330;52.08032700;5.40923460;2023-05-07T09:59:55;21.00;92.40
6536;DHT22;34330;52.08032700;5.40923460;2023-05-07T10:02:29;21.10;92.20
6536;DHT22;34330;52.08032700;5.40923460;2023-05-07T10:04:58;21.10;92.30
6536;DHT22;34330;52.08032700;5.40923460;2023-05-07T10:07:27;21.20;92.20
6536;DHT22;34330;52.08032700;5.40923460;2023-05-07T10:09:56;21.30;92.00
6536;DHT22;34330;52.08032700;5.40923460;2023-05-07T10:12:25;21.40;92.00
6536;DHT22;34330;52.08032700;5.40923460;2023-05-07T10:14:54;21.50;91.90
6536;DHT22;34330;52.08032700;5.40923460;2023-05-07T10:17:23;21.50;91.50
6536;DHT22;34330;52.08032700;5.40923460;2023-05-07T10:19:54;21.60;91.50
6536;DHT22;34330;52.08032700;5.40923460;2023-05-07T10:22:22;21.60;91.50
6536;DHT22;34330;52.08032700;5.40923460;2023-05-07T10:24:52;21.70;91.30
6536;DHT22;34330;52.08032700;5.40923460;2023-05-07T10:27:22;21.70;91.30
6536;DHT22;34330;52.08032700;5.40923460;2023-05-07T10:29:57;21.80;91.60
6536;DHT22;34330;52.08032700;5.40923460;2023-05-07T10:32:37;21.80;91.60
6536;DHT22;34330;52.08032700;5.40923460;2023-05-07T10:35:11;21.90;91.60
6536;DHT22;34330;52.08032700;5.40923460;2023-05-07T10:37:42;22.00;91.60
6536;DHT22;34330;52.08032700;5.40923460;2023-05-07T10:40:11;22.10;91.60
6536;DHT22;34330;52.08032700;5.40923460;2023-05-07T10:42:53;22.20;91.50
6536;DHT22;34330;52.08032700;5.40923460;2023-05-07T10:45:22;22.30;91.50
6536;DHT22;34330;52.08032700;5.40923460;2023-05-07T10:48:09;22.40;91.30
6536;DHT22;34330;52.08032700;5.40923460;2023-05-07T10:50:43;22.60;91.30
6536;DHT22;34330;52.08032700;5.40923460;2023-05-07T10:53:23;22.80;91.10
6536;DHT22;34330;52.08032700;5.40923460;2023-05-07T10:59:33;23.00;91.00
6536;DHT22;34330;52.08032700;5.40923460;2023-05-07T11:02:03;23.20;90.50
6536;DHT22;34330;52.08032700;5.40923460;2023-05-07T11:04:33;23.40;90.50
6536;DHT22;34330;52.08032700;5.40923460;2023-05-07T11:07:24;23.50;89.80
6536;DHT22;34330;52.08032700;5.40923460;2023-05-07T11:10:02;23.40;89.80
6536;DHT22;34330;52.08032700;5.40923460;2023-05-07T11:12:51;23.70;89.00
6536;DHT22;34330;52.08032700;5.40923460;2023-05-07T11:15:36;23.80;88.70
6536;DHT22;34330;52.08032700;5.40923460;2023-05-07T11:18:05;23.90;87.80
6536;DHT22;34330;52.08032700;5.40923460;2023-05-07T11:20:58;24.00;88.40
6536;DHT22;34330;52.08032700;5.40923460;2023-05-07T11:23:57;24.10;86.90
6536;DHT22;34330;52.08032700;5.40923460;2023-05-07T11:26:27;24.20;87.30
6536;DHT22;34330;52.08032700;5.40923460;2023-05-07T11:28:56;24.30;87.80
6536;DHT22;34330;52.08032700;5.40923460;2023-05-07T11:31:27;24.30;87.80
6536;DHT22;34330;52.08032700;5.40923460;2023-05-07T11:33:56;24.40;87.80
6536;DHT22;34330;52.08032700;5.40923460;2023-05-07T11:36:30;24.60;87.60
6536;DHT22;34330;52.08032700;5.40923460;2023-05-07T11:38:58;24.60;86.80
6536;DHT22;34330;52.08032700;5.40923460;2023-05-07T11:41:34;24.80;86.50
6536;DHT22;34330;52.08032700;5.40923460;2023-05-07T11:44:02;24.80;85.20
6536;DHT22;34330;52.08032700;5.40923460;2023-05-07T11:46:32;25.00;85.60
6536;DHT22;34330;52.08032700;5.40923460;2023-05-07T11:49:01;25.00;84.80
6536;DHT22;34330;52.08032700;5.40923460;2023-05-07T11:51:30;25.10;84.20
6536;DHT22;34330;52.08032700;5.40923460;2023-05-07T11:53:58;25.10;83.90
6536;DHT22;34330;52.08032700;5.40923460;2023-05-07T11:56:26;25.10;83.80
6536;DHT22;34330;52.08032700;5.40923460;2023-05-07T11:58:54;25.20;83.10
6536;DHT22;34330;52.08032700;5.40923460;2023-05-07T12:01:21;25.20;82.70
6536;DHT22;34330;52.08032700;5.40923460;2023-05-07T12:03:51;25.30;82.30
6536;DHT22;34330;52.08032700;5.40923460;2023-05-07T12:06:19;25.40;82.10
6536;DHT22;34330;52.08032700;5.40923460;2023-05-07T12:08:47;25.40;82.20
6536;DHT22;34330;52.08032700;5.40923460;2023-05-07T12:11:16;25.50;82.90
6536;DHT22;34330;52.08032700;5.40923460;2023-05-07T12:13:49;25.50;81.80
6536;DHT22;34330;52.08032700;5.40923460;2023-05-07T12:16:17;25.60;80.70
6536;DHT22;34330;52.08032700;5.40923460;2023-05-07T12:18:46;25.70;78.30
6536;DHT22;34330;52.08032700;5.40923460;2023-05-07T12:21:16;25.70;77.40
6536;DHT22;34330;52.08032700;5.40923460;2023-05-07T12:23:44;25.70;75.70
6536;DHT22;34330;52.08032700;5.40923460;2023-05-07T12:26:12;25.70;77.70
6536;DHT22;34330;52.08032700;5.40923460;2023-05-07T12:28:40;25.80;76.30
6536;DHT22;34330;52.08032700;5.40923460;2023-05-07T12:31:08;25.80;76.40
6536;DHT22;34330;52.08032700;5.40923460;2023-05-07T12:33:37;25.90;75.60
6536;DHT22;34330;52.08032700;5.40923460;2023-05-07T12:36:06;25.90;74.70
6536;DHT22;34330;52.08032700;5.40923460;2023-05-07T12:38:37;26.00;73.80
6536;DHT22;34330;52.08032700;5.40923460;2023-05-07T12:41:07;26.00;73.40
6536;DHT22;34330;52.08032700;5.40923460;2023-05-07T12:43:35;26.00;73.60
6536;DHT22;34330;52.08032700;5.40923460;2023-05-07T12:46:05;26.10;73.40
6536;DHT22;34330;52.08032700;5.40923460;2023-05-07T12:48:36;26.10;72.90
6536;DHT22;34330;52.08032700;5.40923460;2023-05-07T12:51:05;26.10;72.90
6536;DHT22;34330;52.08032700;5.40923460;2023-05-07T12:53:33;26.10;70.80
6536;DHT22;34330;52.08032700;5.40923460;2023-05-07T12:56:08;26.20;71.80
6536;DHT22;34330;52.08032700;5.40923460;2023-05-07T12:58:36;26.20;70.50
6536;DHT22;34330;52.08032700;5.40923460;2023-05-07T13:01:06;26.50;71.40
6536;DHT22;34330;52.08032700;5.40923460;2023-05-07T13:03:36;26.40;70.20
6536;DHT22;34330;52.08032700;5.40923460;2023-05-07T13:06:06;26.40;70.00
6536;DHT22;34330;52.08032700;5.40923460;2023-05-07T13:08:36;26.40;70.40
6536;DHT22;34330;52.08032700;5.40923460;2023-05-07T13:11:09;26.40;70.30
6536;DHT22;34330;52.08032700;5.40923460;2023-05-07T13:13:37;26.50;69.50
6536;DHT22;34330;52.08032700;5.40923460;2023-05-07T13:16:08;26.50;70.30
6536;DHT22;34330;52.08032700;5.40923460;2023-05-07T13:18:38;26.50;70.00
6536;DHT22;34330;52.08032700;5.40923460;2023-05-07T13:21:07;26.50;69.70
6536;DHT22;34330;52.08032700;5.40923460;2023-05-07T13:23:35;26.50;69.70
6536;DHT22;34330;52.08032700;5.40923460;2023-05-07T13:26:04;26.50;69.20
6536;DHT22;34330;52.08032700;5.40923460;2023-05-07T13:28:53;26.50;69.40
6536;DHT22;34330;52.08032700;5.40923460;2023-05-07T13:31:21;26.50;68.80
6536;DHT22;34330;52.08032700;5.40923460;2023-05-07T13:33:49;27.70;69.40
6536;DHT22;34330;52.08032700;5.40923460;2023-05-07T13:36:17;26.40;68.70
6536;DHT22;34330;52.08032700;5.40923460;2023-05-07T13:38:45;26.40;68.80
6536;DHT22;34330;52.08032700;5.40923460;2023-05-07T13:41:13;26.30;69.70
6536;DHT22;34330;52.08032700;5.40923460;2023-05-07T13:43:41;26.30;70.20
6536;DHT22;34330;52.08032700;5.40923460;2023-05-07T13:46:11;26.30;70.80
6536;DHT22;34330;52.08032700;5.40923460;2023-05-07T13:48:38;26.20;71.00